createdAt,value
2022-12-15T00:03:53.296Z,-1.07
2022-12-15T00:08:36.499Z,-1.08
2022-12-15T00:12:57.935Z,-1.14
2022-12-15T00:17:18.188Z,-1.16
2022-12-15T00:21:38.006Z,-1.19
2022-12-15T00:25:58.450Z,-1.25
2022-12-15T00:30:18.206Z,-1.30
2022-12-15T00:34:38.306Z,-1.31
2022-12-15T00:38:45.512Z,-1.27
2022-12-15T00:42:49.436Z,-1.29
2022-12-15T00:46:57.232Z,-1.27
2022-12-15T00:50:59.082Z,-1.29
2022-12-15T00:55:19.332Z,-1.29
2022-12-15T00:59:39.589Z,-1.35
2022-12-15T01:03:59.779Z,-1.41
2022-12-15T01:08:19.794Z,-1.37
2022-12-15T01:12:39.849Z,-1.38
2022-12-15T01:16:59.995Z,-1.35
2022-12-15T01:21:04.871Z,-1.38
2022-12-15T01:25:08.210Z,-1.37
2022-12-15T01:29:09.608Z,-1.32
2022-12-15T01:33:12.229Z,-1.30
2022-12-15T01:37:13.597Z,-1.30
2022-12-15T01:41:15.116Z,-1.34
2022-12-15T01:45:28.651Z,-1.41
2022-12-15T01:49:32.110Z,-1.46
2022-12-15T01:53:37.748Z,-1.47
2022-12-15T01:57:39.495Z,-1.52
2022-12-15T02:01:41.382Z,-1.56
2022-12-15T02:05:43.280Z,-1.55
2022-12-15T02:09:48.401Z,-1.55
2022-12-15T02:14:05.726Z,-1.53
2022-12-15T02:18:20.023Z,-1.53
2022-12-15T02:22:33.967Z,-1.52
2022-12-15T02:27:07.911Z,-1.53
2022-12-15T02:31:51.024Z,-1.53
2022-12-15T02:35:57.782Z,-1.52
2022-12-15T02:40:00.153Z,-1.49
2022-12-15T02:44:04.505Z,-1.46
2022-12-15T02:48:22.338Z,-1.45
2022-12-15T02:53:02.700Z,-1.48
2022-12-15T02:57:19.861Z,-1.46
2022-12-15T03:01:29.225Z,-1.49
2022-12-15T03:05:31.842Z,-1.58
2022-12-15T03:09:33.588Z,-1.66
2022-12-15T03:13:35.212Z,-1.75
2022-12-15T03:17:38.237Z,-1.86
2022-12-15T03:21:39.731Z,-2.01
2022-12-15T03:25:41.221Z,-2.08
2022-12-15T03:29:42.622Z,-2.09
2022-12-15T03:33:44.016Z,-2.10
2022-12-15T03:37:45.413Z,-2.15
2022-12-15T03:41:46.743Z,-2.22
2022-12-15T03:45:48.632Z,-2.27
2022-12-15T03:49:50.008Z,-2.21
2022-12-15T03:53:52.104Z,-2.19
2022-12-15T03:57:53.504Z,-2.13
2022-12-15T04:01:55.322Z,-2.10
2022-12-15T04:05:56.729Z,-2.04
2022-12-15T04:09:58.119Z,-2.03
2022-12-15T04:13:59.451Z,-1.96
2022-12-15T04:18:02.996Z,-1.92
2022-12-15T04:22:04.348Z,-1.91
2022-12-15T04:26:24.500Z,-1.91
2022-12-15T04:30:44.758Z,-1.98
2022-12-15T04:35:04.850Z,-1.96
2022-12-15T04:39:24.713Z,-1.94
2022-12-15T04:43:45.500Z,-1.87
2022-12-15T04:48:05.989Z,-1.81
2022-12-15T04:52:26.455Z,-1.79
2022-12-15T04:56:46.591Z,-1.81
2022-12-15T05:01:10.477Z,-1.84
2022-12-15T05:05:30.651Z,-1.93
2022-12-15T05:09:50.807Z,-1.97
2022-12-15T05:14:10.750Z,-1.96
2022-12-15T05:18:30.842Z,-1.97
2022-12-15T05:22:50.966Z,-1.95
2022-12-15T05:27:10.872Z,-1.96
2022-12-15T05:31:31.093Z,-1.99
2022-12-15T05:35:32.547Z,-1.97
2022-12-15T05:39:34.122Z,-1.98
2022-12-15T05:43:35.888Z,-1.98
2022-12-15T05:47:37.465Z,-2.05
2022-12-15T05:51:42.511Z,-2.12
2022-12-15T05:55:43.838Z,-2.17
2022-12-15T05:59:46.088Z,-2.21
2022-12-15T06:03:48.126Z,-2.31
2022-12-15T06:07:49.870Z,-2.36
2022-12-15T06:11:51.337Z,-2.41
2022-12-15T06:16:02.208Z,-2.55
2022-12-15T06:20:04.269Z,-2.63
2022-12-15T06:24:06.787Z,-2.75
2022-12-15T06:28:08.447Z,-2.81
2022-12-15T06:32:09.850Z,-2.85
2022-12-15T06:36:17.753Z,-2.93
2022-12-15T06:40:19.168Z,-2.98
2022-12-15T06:44:20.637Z,-3.06
2022-12-15T06:48:25.040Z,-3.16
2022-12-15T06:52:26.411Z,-3.20
2022-12-15T06:56:34.073Z,-3.34
2022-12-15T07:00:36.760Z,-3.45
2022-12-15T07:04:38.415Z,-3.55
2022-12-15T07:08:41.854Z,-3.59
2022-12-15T07:12:43.571Z,-3.73
2022-12-15T07:16:46.030Z,-3.83
2022-12-15T07:20:47.531Z,-3.81
2022-12-15T07:24:51.481Z,-3.83
2022-12-15T07:28:54.241Z,-3.85
2022-12-15T07:32:56.376Z,-3.79
2022-12-15T07:36:58.127Z,-3.83
2022-12-15T07:41:04.674Z,-3.90
2022-12-15T07:45:08.034Z,-3.85
2022-12-15T07:49:10.271Z,-3.79
2022-12-15T07:53:11.784Z,-3.76
2022-12-15T07:57:13.325Z,-3.77
2022-12-15T08:01:16.579Z,-3.67
2022-12-15T08:05:18.082Z,-3.48
2022-12-15T08:09:20.040Z,-3.28
2022-12-15T08:33:35.233Z,-1.76
2022-12-15T08:37:36.648Z,-1.51
2022-12-15T08:41:38.067Z,-1.31
2022-12-15T08:45:41.076Z,-1.10
2022-12-15T08:49:43.273Z,-0.94
2022-12-15T08:53:45.861Z,-0.69
2022-12-15T08:57:47.475Z,-0.50
2022-12-15T09:01:49.061Z,-0.19
2022-12-15T09:05:50.908Z,0.06
2022-12-15T09:09:52.401Z,0.07
2022-12-15T09:13:54.903Z,0.21
2022-12-15T09:17:56.320Z,0.38
2022-12-15T09:21:59.813Z,0.55
2022-12-15T09:26:02.929Z,0.70
2022-12-15T09:30:04.946Z,0.79
2022-12-15T09:34:06.778Z,0.75
2022-12-15T09:38:08.189Z,0.83
2022-12-15T09:42:23.631Z,0.87
2022-12-15T09:46:53.505Z,0.69
2022-12-15T09:50:57.565Z,0.72
2022-12-15T09:55:01.981Z,0.74
2022-12-15T09:59:16.935Z,0.64
2022-12-15T10:03:22.958Z,0.51
2022-12-15T10:07:34.585Z,0.43
2022-12-15T10:11:56.965Z,0.31
2022-12-15T10:16:20.831Z,0.17
2022-12-15T10:20:26.295Z,0.07
2022-12-15T10:25:07.967Z,-0.03
2022-12-15T10:29:06.555Z,-0.03
2022-12-15T10:33:24.460Z,-0.07
2022-12-15T10:37:25.852Z,-0.05
2022-12-15T10:41:33.085Z,-0.03
2022-12-15T10:45:39.267Z,-0.05
2022-12-15T10:49:40.606Z,-0.07
2022-12-15T10:54:00.863Z,-0.01
2022-12-15T10:58:14.243Z,-0.06
2022-12-15T11:02:33.333Z,0.03
2022-12-15T11:06:37.947Z,0.07
2022-12-15T11:11:12.180Z,0.19
2022-12-15T11:15:22.647Z,0.38
2022-12-15T11:19:44.410Z,0.47
2022-12-15T11:23:58.367Z,0.60
2022-12-15T11:28:03.731Z,0.69
2022-12-15T11:32:07.572Z,0.68
2022-12-15T11:36:18.354Z,0.76
2022-12-15T11:40:38.119Z,0.85
2022-12-15T11:44:52.302Z,1.03
2022-12-15T11:49:08.998Z,1.10
2022-12-15T11:53:54.299Z,1.04
2022-12-15T11:58:10.519Z,0.96
2022-12-15T12:02:27.149Z,0.96
2022-12-15T12:06:36.968Z,1.12
2022-12-15T12:10:53.714Z,1.19
2022-12-15T12:15:08.387Z,1.24
2022-12-15T12:19:15.702Z,1.23
2022-12-15T12:23:32.176Z,1.29
2022-12-15T12:28:08.299Z,1.33
2022-12-15T12:32:50.590Z,1.33
2022-12-15T12:37:01.204Z,1.28
2022-12-15T12:41:47.620Z,1.24
2022-12-15T12:46:01.867Z,1.18
2022-12-15T12:50:20.819Z,1.09
2022-12-15T12:54:57.515Z,1.07
2022-12-15T12:59:37.985Z,1.05
2022-12-15T13:04:10.043Z,0.99
2022-12-15T13:08:28.664Z,0.92
2022-12-15T13:13:17.955Z,0.90
2022-12-15T13:21:56.832Z,0.84
2022-12-15T13:26:33.680Z,0.85
2022-12-15T13:30:37.564Z,0.83
2022-12-15T13:39:25.156Z,0.86
2022-12-15T13:43:50.235Z,0.87
2022-12-15T13:47:56.344Z,0.91
2022-12-15T14:01:58.602Z,0.96
2022-12-15T14:06:32.849Z,0.96
2022-12-15T14:11:46.081Z,0.96
2022-12-15T14:15:34.262Z,0.96
2022-12-15T14:19:41.192Z,0.95
2022-12-15T14:24:03.925Z,0.89
2022-12-15T14:28:24.456Z,0.84
2022-12-15T14:32:56.030Z,0.77
2022-12-15T14:37:07.195Z,0.69
2022-12-15T14:41:24.333Z,0.61
2022-12-15T14:45:30.199Z,0.55
2022-12-15T14:49:41.088Z,0.51
2022-12-15T14:53:48.551Z,0.46
2022-12-15T14:57:52.422Z,0.39
2022-12-15T15:02:02.786Z,0.29
2022-12-15T15:06:07.414Z,0.25
2022-12-15T15:10:23.795Z,0.19
2022-12-15T15:14:31.830Z,0.12
2022-12-15T15:18:34.442Z,0.04
2022-12-15T15:22:43.230Z,-0.02
2022-12-15T15:26:44.636Z,-0.11
2022-12-15T15:30:52.164Z,-0.17
2022-12-15T15:34:58.119Z,-0.25
2022-12-15T15:39:01.198Z,-0.34
2022-12-15T15:43:10.070Z,-0.42
2022-12-15T15:47:21.604Z,-0.49
2022-12-15T15:51:27.326Z,-0.55
2022-12-15T15:55:37.751Z,-0.58
2022-12-15T15:59:42.431Z,-0.66
2022-12-15T16:03:44.369Z,-0.74
2022-12-15T16:07:46.718Z,-0.79
2022-12-15T16:11:48.192Z,-0.83
2022-12-15T16:15:49.885Z,-0.87
2022-12-15T16:19:51.800Z,-0.92
2022-12-15T16:23:54.427Z,-0.95
2022-12-15T16:27:55.812Z,-1.05
2022-12-15T16:31:57.351Z,-1.07
2022-12-15T16:35:59.735Z,-1.10
2022-12-15T16:40:01.138Z,-1.15
2022-12-15T16:44:02.639Z,-1.16
2022-12-15T16:48:04.047Z,-1.17
2022-12-15T16:52:05.570Z,-1.16
2022-12-15T16:56:12.845Z,-1.12
2022-12-15T17:00:20.358Z,-1.10
2022-12-15T17:04:21.981Z,-1.09
2022-12-15T17:08:27.487Z,-1.08
2022-12-15T17:12:30.092Z,-1.08
2022-12-15T17:16:31.484Z,-1.07
2022-12-15T17:20:33.077Z,-1.10
2022-12-15T17:24:34.808Z,-1.08
2022-12-15T17:28:40.562Z,-1.10
2022-12-15T17:32:43.502Z,-1.13
2022-12-15T17:36:45.492Z,-1.15
2022-12-15T17:40:49.181Z,-1.18
2022-12-15T17:44:51.813Z,-1.19
2022-12-15T17:48:53.730Z,-1.17
2022-12-15T17:52:55.094Z,-1.17
2022-12-15T17:56:56.483Z,-1.17
2022-12-15T18:00:57.895Z,-1.19
2022-12-15T18:04:59.566Z,-1.17
2022-12-15T18:09:01.080Z,-1.17
2022-12-15T18:13:02.819Z,-1.20
2022-12-15T18:17:04.196Z,-1.22
2022-12-15T18:21:16.801Z,-1.20
2022-12-15T18:25:26.661Z,-1.22
2022-12-15T18:29:28.012Z,-1.22
2022-12-15T18:33:30.839Z,-1.22
2022-12-15T18:37:34.255Z,-1.23
2022-12-15T18:41:35.590Z,-1.25
2022-12-15T18:45:37.108Z,-1.25
2022-12-15T18:49:39.061Z,-1.26
2022-12-15T18:53:41.539Z,-1.30
2022-12-15T18:57:43.340Z,-1.32
2022-12-15T19:01:47.519Z,-1.36
2022-12-15T19:05:53.366Z,-1.41
2022-12-15T19:09:54.905Z,-1.44
2022-12-15T19:14:00.184Z,-1.47
2022-12-15T19:18:20.279Z,-1.52
2022-12-15T19:22:27.910Z,-1.56
2022-12-15T19:26:29.379Z,-1.58
2022-12-15T19:30:41.598Z,-1.61
2022-12-15T19:34:43.799Z,-1.63
2022-12-15T19:38:46.494Z,-1.62
2022-12-15T19:42:48.961Z,-1.62
2022-12-15T19:46:50.419Z,-1.63
2022-12-15T19:50:52.075Z,-1.63
2022-12-15T19:54:53.787Z,-1.64
2022-12-15T19:58:56.680Z,-1.64
2022-12-15T20:02:58.210Z,-1.66
2022-12-15T20:07:04.073Z,-1.65
2022-12-15T20:11:10.768Z,-1.68
2022-12-15T20:15:22.445Z,-1.71
2022-12-15T20:19:23.831Z,-1.72
2022-12-15T20:23:27.041Z,-1.74
2022-12-15T20:27:28.531Z,-1.77
2022-12-15T20:31:30.032Z,-1.78
2022-12-15T20:35:34.607Z,-1.82
2022-12-15T20:39:36.126Z,-1.84
2022-12-15T20:43:38.033Z,-1.87
2022-12-15T20:47:41.514Z,-1.88
2022-12-15T20:51:44.060Z,-1.89
2022-12-15T20:55:46.439Z,-1.89
2022-12-15T20:59:47.807Z,-1.91
2022-12-15T21:03:51.998Z,-1.92
2022-12-15T21:07:53.621Z,-1.94
2022-12-15T21:11:55.215Z,-1.96
2022-12-15T21:15:57.235Z,-1.95
2022-12-15T21:19:58.748Z,-1.99
2022-12-15T21:24:01.889Z,-2.01
2022-12-15T21:28:11.500Z,-2.03
2022-12-15T21:32:13.160Z,-2.03
2022-12-15T21:36:16.935Z,-2.03
2022-12-15T21:40:24.989Z,-2.04
2022-12-15T21:44:26.456Z,-2.06
2022-12-15T21:48:46.755Z,-2.06
2022-12-15T21:52:48.658Z,-2.04
2022-12-15T21:56:50.515Z,-2.04
2022-12-15T22:00:51.989Z,-2.03
2022-12-15T22:04:54.872Z,-2.02
2022-12-15T22:09:01.294Z,-2.03
2022-12-15T22:13:03.487Z,-2.04
2022-12-15T22:17:16.887Z,-2.00
2022-12-15T22:21:18.296Z,-2.01
2022-12-15T22:25:22.781Z,-2.01
2022-12-15T22:29:24.919Z,-2.01
2022-12-15T22:33:28.010Z,-2.03
2022-12-15T22:37:29.506Z,-2.06
2022-12-15T22:41:31.555Z,-2.08
2022-12-15T22:45:32.979Z,-2.07
2022-12-15T22:49:39.843Z,-2.12
2022-12-15T22:53:41.715Z,-2.14
2022-12-15T22:57:54.303Z,-2.16
2022-12-15T23:01:56.009Z,-2.23
2022-12-15T23:05:58.578Z,-2.29
2022-12-15T23:10:18.676Z,-2.34
2022-12-15T23:14:40.570Z,-2.40
2022-12-15T23:18:41.910Z,-2.51
2022-12-15T23:22:43.350Z,-2.58
2022-12-15T23:26:44.764Z,-2.63
2022-12-15T23:30:50.755Z,-2.68
2022-12-15T23:34:52.123Z,-2.73
2022-12-15T23:38:55.465Z,-2.79
2022-12-15T23:42:56.834Z,-2.90
2022-12-15T23:46:58.309Z,-2.95
2022-12-15T23:51:20.059Z,-2.97
2022-12-15T23:55:21.420Z,-3.02
2022-12-15T23:59:22.915Z,-3.04
